Point Baker, Alaska
Current Conditions -  °F | °C
As of 4:36 AM on Friday 24 Oct 2014 (Local Time) from PAPG Reporting Station
Broken Clouds Broken Clouds  
Wind Chill: 39°   Ceiling: 6000
Heat Index: 43°   Visibility: 10mi
Dew Point: 39°   Wind: 7mph
Humidity: 87%   Direction: 30°NNE
Pressure: 29.81"   Gusts: NA
Location:  56.35°N, 133.61°W
Report Text: PAPG 241236Z 03006KT 10SM BKN060 06/04 A2981 RMK AO1
Loading
Personal Weather Stations






























Interactive Weather Map
Tropical Storm Tracking
New forecast layout! Learn more

10-Day Weather Forecast

Advertisements
Track Severe Weather on mobile